createdAt,value
2022-09-03T00:01:07.598Z,101440.28
2022-09-03T00:03:39.286Z,101435.53
2022-09-03T00:06:13.002Z,101355.09
2022-09-03T00:09:00.193Z,101399.56
2022-09-03T00:11:31.570Z,101445.66
2022-09-03T00:14:04.022Z,101365.81
2022-09-03T00:16:41.081Z,101268.44
2022-09-03T00:19:08.074Z,101436.28
2022-09-03T00:21:40.104Z,101321.59
2022-09-03T00:24:14.103Z,101395.00
2022-09-03T00:26:45.122Z,101401.31
2022-09-03T00:29:15.888Z,101427.13
2022-09-03T00:31:46.043Z,101272.50
2022-09-03T00:34:20.209Z,101300.25
2022-09-03T00:36:47.304Z,101370.84
2022-09-03T00:39:18.543Z,101454.91
2022-09-03T00:42:09.002Z,101298.44
2022-09-03T00:44:58.433Z,101443.09
2022-09-03T00:47:34.570Z,101429.16
2022-09-03T00:50:08.543Z,101434.66
2022-09-03T00:52:45.644Z,101428.91
2022-09-03T00:55:38.879Z,101345.84
2022-09-03T00:58:26.098Z,101270.72
2022-09-03T01:00:54.583Z,101370.97
2022-09-03T01:03:32.695Z,101440.28
2022-09-03T01:06:17.069Z,101392.44
2022-09-03T01:09:17.368Z,101359.13
2022-09-03T01:11:55.169Z,101270.78
2022-09-03T01:14:34.871Z,101400.75
2022-09-03T01:17:08.965Z,101404.59
2022-09-03T01:20:01.938Z,101376.94
2022-09-03T01:23:11.880Z,101361.94
2022-09-03T01:25:53.529Z,101286.97
2022-09-03T01:28:40.963Z,101406.03
2022-09-03T01:31:24.182Z,101415.16
2022-09-03T01:34:01.157Z,101402.59
2022-09-03T01:36:37.522Z,101362.16
2022-09-03T01:39:06.393Z,101419.19
2022-09-03T01:41:48.114Z,101403.97
2022-09-03T01:44:24.231Z,101257.69
2022-09-03T01:46:55.502Z,101409.97
2022-09-03T01:49:28.588Z,101266.34
2022-09-03T01:52:03.065Z,101367.28
2022-09-03T01:54:51.873Z,101431.47
2022-09-03T01:57:37.538Z,101441.41
2022-09-03T02:00:08.590Z,101336.19
2022-09-03T02:02:38.410Z,101437.63
2022-09-03T02:05:08.791Z,101339.38
2022-09-03T02:07:38.271Z,101450.81
2022-09-03T02:10:08.333Z,101284.00
2022-09-03T02:12:38.666Z,101268.59
2022-09-03T02:15:12.823Z,101426.88
2022-09-03T02:17:41.899Z,101318.44
2022-09-03T02:20:12.527Z,101337.47
2022-09-03T02:22:41.037Z,101264.16
2022-09-03T02:25:09.201Z,101353.13
2022-09-03T02:27:36.027Z,101422.84
2022-09-03T02:30:04.545Z,101425.56
2022-09-03T02:32:33.393Z,101247.25
2022-09-03T02:35:04.865Z,101342.38
2022-09-03T02:37:31.678Z,101427.19
2022-09-03T02:40:02.247Z,101255.84
2022-09-03T02:42:29.447Z,101424.66
2022-09-03T02:45:04.194Z,101422.63
2022-09-03T02:47:34.396Z,101364.22
2022-09-03T02:50:01.448Z,101430.13
2022-09-03T02:52:28.809Z,101370.75
2022-09-03T02:54:55.693Z,101348.75
2022-09-03T02:57:27.322Z,101275.06
2022-09-03T02:59:56.102Z,101368.19
2022-09-03T03:02:22.898Z,101358.84
2022-09-03T03:04:54.599Z,101418.19
2022-09-03T03:07:22.492Z,101260.28
2022-09-03T03:09:49.252Z,101420.41
2022-09-03T03:12:16.206Z,101426.47
2022-09-03T03:14:43.710Z,101288.63
2022-09-03T03:17:10.463Z,101415.53
2022-09-03T03:19:38.726Z,101423.13
2022-09-03T03:22:09.314Z,101311.09
2022-09-03T03:24:36.382Z,101261.66
2022-09-03T03:27:03.714Z,101383.47
2022-09-03T03:29:30.548Z,101428.06
2022-09-03T03:31:57.464Z,101259.22
2022-09-03T03:34:24.260Z,101244.63
2022-09-03T03:36:51.058Z,101382.22
2022-09-03T03:39:19.464Z,101408.41
2022-09-03T03:41:46.590Z,101374.53
2022-09-03T03:44:13.377Z,101345.75
2022-09-03T03:46:41.654Z,101404.06
2022-09-03T03:49:09.461Z,101404.06
2022-09-03T03:51:37.484Z,101420.38
2022-09-03T03:54:05.602Z,101316.66
2022-09-03T03:56:36.271Z,101346.53
2022-09-03T03:59:04.146Z,101260.72
2022-09-03T04:01:31.119Z,101377.81
2022-09-03T04:04:00.616Z,101260.53
2022-09-03T04:06:28.334Z,101391.47
2022-09-03T04:08:56.773Z,101406.50
2022-09-03T04:11:24.897Z,101249.84
2022-09-03T04:13:55.490Z,101379.75
2022-09-03T04:16:23.814Z,101250.38
2022-09-03T04:18:52.688Z,101253.78
2022-09-03T04:21:21.308Z,101271.59
2022-09-03T04:23:50.402Z,101238.53
2022-09-03T04:26:19.581Z,101375.66
2022-09-03T04:28:46.931Z,101290.94
2022-09-03T04:31:17.857Z,101352.97
2022-09-03T04:33:45.050Z,101273.75
2022-09-03T04:36:13.669Z,101249.66
2022-09-03T04:38:43.161Z,101381.53
2022-09-03T04:41:15.044Z,101265.56
2022-09-03T04:43:42.331Z,101301.78
2022-09-03T04:46:16.393Z,101339.06
2022-09-03T04:48:49.116Z,101228.25
2022-09-03T04:51:18.760Z,101243.97
2022-09-03T04:53:49.066Z,101381.13
2022-09-03T04:56:17.653Z,101273.22
2022-09-03T04:58:45.721Z,101337.09
2022-09-03T05:01:16.743Z,101405.38
2022-09-03T05:03:43.883Z,101404.38
2022-09-03T05:06:12.091Z,101249.66
2022-09-03T05:08:39.049Z,101414.81
2022-09-03T05:11:07.391Z,101371.50
2022-09-03T05:13:36.241Z,101321.25
2022-09-03T05:16:05.689Z,101252.00
2022-09-03T05:18:32.782Z,101378.75
2022-09-03T05:21:01.962Z,101270.06
2022-09-03T05:23:33.234Z,101330.03
2022-09-03T05:26:06.222Z,101419.88
2022-09-03T05:28:38.607Z,101363.19
2022-09-03T05:31:10.883Z,101237.34
2022-09-03T05:33:40.281Z,101312.91
2022-09-03T05:36:09.828Z,101397.78
2022-09-03T05:38:38.180Z,101384.69
2022-09-03T05:41:06.935Z,101271.75
2022-09-03T05:43:34.423Z,101316.44
2022-09-03T05:46:03.327Z,101335.47
2022-09-03T05:48:30.937Z,101390.91
2022-09-03T05:51:04.768Z,101383.16
2022-09-03T05:53:34.517Z,101230.16
2022-09-03T05:56:06.287Z,101230.16
2022-09-03T05:58:34.489Z,101327.50
2022-09-03T06:01:09.927Z,101294.19
2022-09-03T06:03:37.996Z,101234.59
2022-09-03T06:06:05.557Z,101407.06
2022-09-03T06:08:32.715Z,101245.56
2022-09-03T06:11:00.561Z,101319.75
2022-09-03T06:13:36.886Z,101379.31
2022-09-03T06:16:11.313Z,101270.81
2022-09-03T06:18:38.255Z,101214.78
2022-09-03T06:21:07.676Z,101264.69
2022-09-03T06:23:36.439Z,101401.75
2022-09-03T06:26:06.050Z,101388.69
2022-09-03T06:28:43.997Z,101384.69
2022-09-03T06:31:12.509Z,101387.50
2022-09-03T06:33:41.331Z,101398.56
2022-09-03T06:36:10.903Z,101402.25
2022-09-03T06:38:38.682Z,101358.94
2022-09-03T06:41:07.780Z,101263.22
2022-09-03T06:43:37.548Z,101258.78
2022-09-03T06:46:07.047Z,101400.53
2022-09-03T06:48:35.762Z,101403.28
2022-09-03T06:51:04.231Z,101410.66
2022-09-03T06:53:34.218Z,101395.16
2022-09-03T06:56:10.951Z,101377.22
2022-09-03T06:58:42.781Z,101414.31
2022-09-03T07:01:14.149Z,101385.34
2022-09-03T07:03:43.255Z,101239.50
2022-09-03T07:06:12.035Z,101418.31
2022-09-03T07:08:38.986Z,101376.41
2022-09-03T07:11:08.005Z,101252.03
2022-09-03T07:13:35.113Z,101412.94
2022-09-03T07:16:04.909Z,101403.03
2022-09-03T07:18:32.775Z,101299.22
2022-09-03T07:21:00.097Z,101284.97
2022-09-03T07:23:27.354Z,101385.53
2022-09-03T07:25:55.658Z,101423.78
2022-09-03T07:28:22.682Z,101392.75
2022-09-03T07:30:49.345Z,101407.16
2022-09-03T07:33:17.943Z,101413.00
2022-09-03T07:35:45.075Z,101426.75
2022-09-03T07:38:12.324Z,101409.44
2022-09-03T07:40:39.312Z,101427.06
2022-09-03T07:43:05.984Z,101420.09
2022-09-03T07:45:34.306Z,101402.47
2022-09-03T07:48:01.163Z,101429.75
2022-09-03T07:50:29.253Z,101425.47
2022-09-03T07:52:56.863Z,101425.19
2022-09-03T07:55:25.274Z,101421.09
2022-09-03T07:57:56.615Z,101416.16
2022-09-03T08:00:23.402Z,101412.59
2022-09-03T08:02:52.215Z,101409.97
2022-09-03T08:05:23.168Z,101407.53
2022-09-03T08:07:53.581Z,101372.38
2022-09-03T08:10:22.672Z,101407.50
2022-09-03T08:12:53.140Z,101400.22
2022-09-03T08:15:20.316Z,101396.94
2022-09-03T08:17:46.995Z,101397.47
2022-09-03T08:20:13.953Z,101407.38
2022-09-03T08:22:40.905Z,101409.34
2022-09-03T08:25:09.795Z,101368.81
2022-09-03T08:27:43.251Z,101402.31
2022-09-03T08:30:12.182Z,101393.50
2022-09-03T08:32:39.311Z,101355.97
2022-09-03T08:35:07.412Z,101412.41
2022-09-03T08:37:34.297Z,101408.31
2022-09-03T08:40:02.852Z,101344.53
2022-09-03T08:42:48.521Z,101402.31
2022-09-03T08:45:19.100Z,101347.25
2022-09-03T08:47:49.549Z,101281.03
2022-09-03T08:50:25.294Z,101400.50
2022-09-03T08:52:55.617Z,101386.94
2022-09-03T08:55:27.243Z,101400.09
2022-09-03T08:58:02.904Z,101391.56
2022-09-03T09:00:42.884Z,101400.78
2022-09-03T09:03:29.783Z,101404.56
2022-09-03T09:06:07.966Z,101394.56
2022-09-03T09:08:47.412Z,101408.78
2022-09-03T09:11:25.424Z,101399.59
2022-09-03T09:14:00.456Z,101375.81
2022-09-03T09:16:36.746Z,101398.94
2022-09-03T09:19:21.056Z,101393.59
2022-09-03T09:21:53.559Z,101364.97
2022-09-03T09:24:27.913Z,101392.47
2022-09-03T09:27:00.336Z,101395.19
2022-09-03T09:29:33.311Z,101402.78
2022-09-03T09:32:00.291Z,101401.16
2022-09-03T09:34:27.320Z,101384.97
2022-09-03T09:36:56.134Z,101398.66
2022-09-03T09:39:23.764Z,101402.66
2022-09-03T09:42:01.750Z,101395.19
2022-09-03T09:44:30.075Z,101386.13
2022-09-03T09:47:05.732Z,101399.78
2022-09-03T09:49:35.238Z,101370.81
2022-09-03T09:52:04.839Z,101390.41
2022-09-03T09:54:31.659Z,101376.34
2022-09-03T09:57:00.299Z,101373.84
2022-09-03T09:59:26.961Z,101384.25
2022-09-03T10:02:22.185Z,101397.41
2022-09-03T10:04:49.970Z,101377.63
2022-09-03T10:07:23.968Z,101368.13
2022-09-03T10:10:01.679Z,101366.84
2022-09-03T10:12:32.573Z,101365.59
2022-09-03T10:15:01.957Z,101370.88
2022-09-03T10:17:42.154Z,101373.53
2022-09-03T10:20:13.915Z,101376.19
2022-09-03T10:22:48.369Z,101381.19
2022-09-03T10:25:29.046Z,101361.69
2022-09-03T10:27:59.912Z,101379.28
2022-09-03T10:30:27.015Z,101366.09
2022-09-03T10:33:05.386Z,101375.94
2022-09-03T10:35:37.931Z,101375.09
2022-09-03T10:38:10.613Z,101369.41
2022-09-03T10:40:40.205Z,101378.94
2022-09-03T10:43:25.973Z,101376.13
2022-09-03T10:46:00.288Z,101350.03
2022-09-03T10:49:04.948Z,101368.78
2022-09-03T10:51:40.889Z,101364.03
2022-09-03T10:54:32.210Z,101362.25
2022-09-03T10:57:08.285Z,101370.44
2022-09-03T10:59:50.138Z,101371.94
2022-09-03T11:02:39.785Z,101367.00
2022-09-03T11:05:16.081Z,101365.72
2022-09-03T11:07:49.061Z,101374.16
2022-09-03T11:10:22.056Z,101364.63
2022-09-03T11:13:00.163Z,101360.47
2022-09-03T11:15:32.479Z,101359.03
2022-09-03T11:18:04.627Z,101359.34
2022-09-03T11:20:33.783Z,101361.38
2022-09-03T11:23:04.616Z,101359.88
2022-09-03T11:25:34.809Z,101355.56
2022-09-03T11:28:14.302Z,101350.91
2022-09-03T11:30:55.938Z,101352.78
2022-09-03T11:33:25.130Z,101360.38
2022-09-03T11:35:59.113Z,101345.34
2022-09-03T11:38:27.436Z,101337.91
2022-09-03T11:41:00.351Z,101331.81
2022-09-03T11:43:30.156Z,101338.78
2022-09-03T11:46:30.454Z,101337.91
2022-09-03T11:49:09.631Z,101331.59
2022-09-03T11:51:42.217Z,101318.13
2022-09-03T11:54:26.115Z,101321.81
2022-09-03T11:57:07.718Z,101335.81
2022-09-03T11:59:34.557Z,101334.00
2022-09-03T12:02:12.035Z,101314.63
2022-09-03T12:04:45.964Z,101325.78
2022-09-03T12:07:42.435Z,101332.06
2022-09-03T12:10:21.246Z,101321.84
2022-09-03T12:13:01.324Z,101320.78
2022-09-03T12:15:53.038Z,101320.84
2022-09-03T12:18:29.472Z,101325.22
2022-09-03T12:21:04.421Z,101314.88
2022-09-03T12:23:44.452Z,101322.56
2022-09-03T12:26:14.363Z,101334.47
2022-09-03T12:28:45.534Z,101326.69
2022-09-03T12:31:16.723Z,101316.75
2022-09-03T12:33:43.681Z,101304.88
2022-09-03T12:36:10.409Z,101311.34
2022-09-03T12:39:10.029Z,101309.59
2022-09-03T12:41:30.457Z,101295.28
2022-09-03T12:43:59.766Z,101317.22
2022-09-03T12:46:32.305Z,101316.13
2022-09-03T12:52:05.840Z,101300.38
2022-09-03T12:54:37.723Z,101309.06
2022-09-03T12:57:05.161Z,101300.41
2022-09-03T12:59:36.765Z,101307.16
2022-09-03T13:02:12.761Z,101302.44
2022-09-03T13:04:41.542Z,101302.19
2022-09-03T13:07:13.987Z,101302.19
2022-09-03T13:09:42.743Z,101306.19
2022-09-03T13:12:22.090Z,101308.94
2022-09-03T13:14:52.705Z,101318.19
2022-09-03T13:17:40.831Z,101320.91
2022-09-03T13:20:29.627Z,101314.56
2022-09-03T13:23:10.529Z,101315.34
2022-09-03T13:25:47.579Z,101313.75
2022-09-03T13:28:31.972Z,101316.16
2022-09-03T13:31:06.349Z,101291.41
2022-09-03T13:33:38.633Z,101299.44
2022-09-03T13:36:10.923Z,101292.19
2022-09-03T13:38:43.185Z,101301.72
2022-09-03T13:41:14.529Z,101311.56
2022-09-03T13:43:45.567Z,101299.09
2022-09-03T13:46:18.106Z,101286.19
2022-09-03T13:48:45.696Z,101305.16
2022-09-03T13:51:18.606Z,101306.59
2022-09-03T13:53:57.921Z,101284.16
2022-09-03T13:56:36.259Z,101306.50
2022-09-03T13:59:09.667Z,101304.50
2022-09-03T14:01:55.894Z,101299.56
2022-09-03T14:04:30.247Z,101301.41
2022-09-03T14:07:03.640Z,101297.53
2022-09-03T14:09:37.942Z,101292.78
2022-09-03T14:12:14.274Z,101293.38
2022-09-03T14:14:53.078Z,101301.75
2022-09-03T14:17:31.221Z,101302.97
2022-09-03T14:20:03.020Z,101285.84
2022-09-03T14:22:44.140Z,101289.84
2022-09-03T14:25:16.230Z,101300.97
2022-09-03T14:27:44.632Z,101274.56
2022-09-03T14:30:24.967Z,101296.91
2022-09-03T14:32:57.870Z,101299.69
2022-09-03T14:35:45.477Z,101270.56
2022-09-03T14:38:56.436Z,101293.72
2022-09-03T14:41:45.851Z,101306.47
2022-09-03T14:44:34.419Z,101301.50
2022-09-03T14:47:15.478Z,101298.25
2022-09-03T14:50:03.206Z,101302.94
2022-09-03T14:52:53.418Z,101300.53
2022-09-03T14:55:31.231Z,101303.97
2022-09-03T14:58:17.070Z,101306.91
2022-09-03T15:00:57.987Z,101304.59
2022-09-03T15:03:44.299Z,101292.59
2022-09-03T15:06:20.433Z,101298.47
2022-09-03T15:09:17.732Z,101291.84
2022-09-03T15:11:50.570Z,101297.25
2022-09-03T15:14:24.634Z,101296.50
2022-09-03T15:16:59.893Z,101301.53
2022-09-03T15:19:48.522Z,101302.50
2022-09-03T15:22:27.753Z,101308.97
2022-09-03T15:25:03.844Z,101308.97
2022-09-03T15:27:46.425Z,101302.59
2022-09-03T15:30:16.221Z,101301.78
2022-09-03T15:32:58.096Z,101300.06
2022-09-03T15:35:40.820Z,101300.69
2022-09-03T15:38:12.892Z,101284.56
2022-09-03T15:40:48.181Z,101314.31
2022-09-03T15:43:19.508Z,101301.41
2022-09-03T15:45:52.953Z,101303.75
2022-09-03T15:48:33.616Z,101302.78
2022-09-03T15:51:11.332Z,101305.13
2022-09-03T15:53:45.864Z,101300.19
2022-09-03T15:56:20.579Z,101305.72
2022-09-03T15:59:01.495Z,101303.09
2022-09-03T16:01:39.150Z,101305.53
2022-09-03T16:04:22.640Z,101307.13
2022-09-03T16:06:57.231Z,101304.41
2022-09-03T16:09:50.283Z,101295.81
2022-09-03T16:12:36.013Z,101315.09
2022-09-03T16:15:10.315Z,101288.16
2022-09-03T16:17:46.965Z,101294.63
2022-09-03T16:20:20.246Z,101302.19
2022-09-03T16:22:52.216Z,101292.91
2022-09-03T16:25:24.662Z,101308.81
2022-09-03T16:28:01.788Z,101305.44
2022-09-03T16:30:48.510Z,101302.44
2022-09-03T16:33:26.849Z,101309.13
2022-09-03T16:36:02.229Z,101267.81
2022-09-03T16:38:44.130Z,101286.06
2022-09-03T16:41:23.088Z,101305.72
2022-09-03T16:44:02.668Z,101308.31
2022-09-03T16:46:40.637Z,101304.88
2022-09-03T16:49:19.693Z,101312.56
2022-09-03T16:51:55.327Z,101306.53
2022-09-03T16:54:43.479Z,101307.91
2022-09-03T16:57:23.677Z,101313.44
2022-09-03T17:00:05.471Z,101298.78
2022-09-03T17:03:10.840Z,101307.50
2022-09-03T17:06:00.854Z,101299.38
2022-09-03T17:08:38.989Z,101282.94
2022-09-03T17:11:18.900Z,101317.47
2022-09-03T17:13:59.149Z,101317.28
2022-09-03T17:16:40.034Z,101300.22
2022-09-03T17:19:14.556Z,101313.38
2022-09-03T17:21:48.826Z,101318.38
2022-09-03T17:24:29.535Z,101326.56
2022-09-03T17:27:18.094Z,101307.66
2022-09-03T17:30:12.144Z,101287.53
2022-09-03T17:33:20.524Z,101321.03
2022-09-03T17:35:55.461Z,101320.84
2022-09-03T17:38:39.604Z,101331.00
2022-09-03T17:41:22.115Z,101326.03
2022-09-03T17:43:56.908Z,101320.13
2022-09-03T17:46:32.840Z,101321.47
2022-09-03T17:49:01.146Z,101327.31
2022-09-03T17:51:35.945Z,101301.25
2022-09-03T17:54:08.178Z,101334.84
2022-09-03T17:56:46.792Z,101334.59
2022-09-03T17:59:22.451Z,101338.16
2022-09-03T18:01:57.503Z,101298.56
2022-09-03T18:04:34.200Z,101343.56
2022-09-03T18:07:10.887Z,101340.88
2022-09-03T18:09:45.176Z,101319.59
2022-09-03T18:12:19.388Z,101349.31
2022-09-03T18:14:52.767Z,101352.78
2022-09-03T18:17:28.817Z,101360.41
2022-09-03T18:20:03.102Z,101362.50
2022-09-03T18:22:37.752Z,101356.38
2022-09-03T18:25:05.747Z,101370.19
2022-09-03T18:27:38.970Z,101358.13
2022-09-03T18:30:08.686Z,101366.19
2022-09-03T18:32:37.278Z,101377.59
2022-09-03T18:35:04.404Z,101373.09
2022-09-03T18:37:31.934Z,101387.25
2022-09-03T18:39:58.679Z,101383.34
2022-09-03T18:42:31.798Z,101397.16
2022-09-03T18:45:20.842Z,101394.84
2022-09-03T18:48:06.003Z,101397.25
2022-09-03T18:50:46.929Z,101401.84
2022-09-03T18:53:29.581Z,101404.72
2022-09-03T18:56:05.103Z,101415.97
2022-09-03T18:58:42.532Z,101401.25
2022-09-03T19:01:27.176Z,101415.50
2022-09-03T19:04:06.698Z,101406.13
2022-09-03T19:06:42.793Z,101405.06
2022-09-03T19:09:21.431Z,101320.84
2022-09-03T19:12:04.372Z,101363.69
2022-09-03T19:14:42.796Z,101416.66
2022-09-03T19:17:26.450Z,101365.53
2022-09-03T19:20:02.966Z,101428.09
2022-09-03T19:22:34.398Z,101427.16
2022-09-03T19:25:05.687Z,101436.09
2022-09-03T19:27:55.741Z,101435.94
2022-09-03T19:30:44.845Z,101437.41
2022-09-03T19:33:37.828Z,101345.53
2022-09-03T19:36:16.922Z,101431.47
2022-09-03T19:38:58.425Z,101445.06
2022-09-03T19:41:32.440Z,101383.59
2022-09-03T19:44:34.147Z,101381.41
2022-09-03T19:47:02.463Z,101393.09
2022-09-03T19:49:43.874Z,101376.81
2022-09-03T19:52:19.734Z,101457.22
2022-09-03T19:54:55.884Z,101369.75
2022-09-03T19:57:24.086Z,101408.97
2022-09-03T19:59:54.219Z,101457.91
2022-09-03T20:02:21.266Z,101456.47
2022-09-03T20:04:58.124Z,101351.69
2022-09-03T20:07:25.369Z,101462.84
2022-09-03T20:09:53.942Z,101466.59
2022-09-03T20:12:25.251Z,101453.84
2022-09-03T20:14:51.985Z,101467.81
2022-09-03T20:17:35.184Z,101340.69
2022-09-03T20:20:15.321Z,101375.75
2022-09-03T20:22:51.075Z,101437.63
2022-09-03T20:25:47.609Z,101454.13
2022-09-03T20:28:30.234Z,101417.81
2022-09-03T20:31:01.691Z,101298.25
2022-09-03T20:33:46.410Z,101389.88
2022-09-03T20:36:29.666Z,101470.81
2022-09-03T20:39:22.509Z,101438.34
2022-09-03T20:42:07.403Z,101342.22
2022-09-03T20:44:51.071Z,101482.34
2022-09-03T20:47:43.846Z,101490.78
2022-09-03T20:50:25.034Z,101483.34
2022-09-03T20:53:03.229Z,101492.88
2022-09-03T20:55:35.421Z,101392.31
2022-09-03T20:58:09.690Z,101469.00
2022-09-03T21:00:48.290Z,101483.03
2022-09-03T21:03:18.373Z,101454.25
2022-09-03T21:05:58.221Z,101470.28
2022-09-03T21:08:48.346Z,101493.09
2022-09-03T21:11:21.219Z,101424.81
2022-09-03T21:13:57.477Z,101489.63
2022-09-03T21:16:31.047Z,101473.13
2022-09-03T21:19:07.004Z,101467.81
2022-09-03T21:21:48.862Z,101368.13
2022-09-03T21:24:32.717Z,101449.50
2022-09-03T21:27:04.846Z,101507.59
2022-09-03T21:29:37.657Z,101512.91
2022-09-03T21:32:09.360Z,101493.66
2022-09-03T21:34:42.172Z,101514.81
2022-09-03T21:37:12.587Z,101479.38
2022-09-03T21:39:48.475Z,101493.94
2022-09-03T21:42:24.569Z,101495.19
2022-09-03T21:44:57.634Z,101433.19
2022-09-03T21:47:28.212Z,101445.00
2022-09-03T21:50:06.415Z,101504.88
2022-09-03T21:52:44.815Z,101451.28
2022-09-03T21:55:22.682Z,101453.53
2022-09-03T21:58:04.665Z,101516.50
2022-09-03T22:00:31.655Z,101511.50
2022-09-03T22:02:59.543Z,101504.53
2022-09-03T22:05:31.252Z,101447.63
2022-09-03T22:08:12.152Z,101423.16
2022-09-03T22:10:51.266Z,101498.94
2022-09-03T22:13:28.353Z,101404.03
2022-09-03T22:16:01.985Z,101511.03
2022-09-03T22:18:30.285Z,101515.38
2022-09-03T22:21:09.048Z,101471.03
2022-09-03T22:23:47.074Z,101517.00
2022-09-03T22:26:27.047Z,101519.72
2022-09-03T22:29:05.682Z,101513.72
2022-09-03T22:31:46.135Z,101523.19
2022-09-03T22:34:26.160Z,101521.69
2022-09-03T22:37:00.958Z,101498.56
2022-09-03T22:39:33.658Z,101531.69
2022-09-03T22:45:20.864Z,101423.25
2022-09-03T22:47:59.112Z,101471.88
2022-09-03T22:50:34.163Z,101385.63
2022-09-03T22:53:14.919Z,101529.84
2022-09-03T22:55:49.181Z,101408.00
2022-09-03T22:58:19.668Z,101527.22
2022-09-03T23:01:00.200Z,101503.09
2022-09-03T23:03:40.279Z,101509.00
2022-09-03T23:06:13.021Z,101511.75
2022-09-03T23:08:47.550Z,101519.97
2022-09-03T23:11:22.657Z,101532.78
2022-09-03T23:13:54.869Z,101532.56
2022-09-03T23:16:31.820Z,101549.66
2022-09-03T23:19:03.246Z,101525.81
2022-09-03T23:21:34.237Z,101558.50
2022-09-03T23:24:07.565Z,101551.09
2022-09-03T23:26:39.038Z,101552.19
2022-09-03T23:29:12.411Z,101548.69
2022-09-03T23:31:42.875Z,101555.38
2022-09-03T23:34:11.761Z,101533.00
2022-09-03T23:37:10.337Z,101472.81
2022-09-03T23:40:16.411Z,101566.56
2022-09-03T23:43:01.642Z,101562.50
2022-09-03T23:45:36.519Z,101555.50
2022-09-03T23:48:18.391Z,101504.34
2022-09-03T23:50:52.625Z,101552.88
2022-09-03T23:53:44.349Z,101555.63
2022-09-03T23:56:32.183Z,101550.75
2022-09-03T23:59:12.225Z,101551.59
